sensor_id;sensor_type;location;lat;lon;timestamp;temperature;humidity
5011;DHT22;2524;54.364;10.072;2022-10-31T00:00:17;13.10;99.90
5011;DHT22;2524;54.364;10.072;2022-10-31T00:02:43;13.10;99.90
5011;DHT22;2524;54.364;10.072;2022-10-31T00:05:09;13.10;99.90
5011;DHT22;2524;54.364;10.072;2022-10-31T00:07:34;13.20;99.90
5011;DHT22;2524;54.364;10.072;2022-10-31T00:10:00;13.20;99.90
5011;DHT22;2524;54.364;10.072;2022-10-31T00:12:26;13.20;99.90
5011;DHT22;2524;54.364;10.072;2022-10-31T00:14:51;13.10;99.90
5011;DHT22;2524;54.364;10.072;2022-10-31T00:17:17;13.10;99.90
5011;DHT22;2524;54.364;10.072;2022-10-31T00:19:43;13.10;99.90
5011;DHT22;2524;54.364;10.072;2022-10-31T00:22:08;13.10;99.90
5011;DHT22;2524;54.364;10.072;2022-10-31T00:24:34;13.10;99.90
5011;DHT22;2524;54.364;10.072;2022-10-31T00:26:59;13.10;99.90
5011;DHT22;2524;54.364;10.072;2022-10-31T00:29:25;13.10;99.90
5011;DHT22;2524;54.364;10.072;2022-10-31T00:31:52;13.10;99.90
5011;DHT22;2524;54.364;10.072;2022-10-31T00:34:17;13.00;99.90
5011;DHT22;2524;54.364;10.072;2022-10-31T00:36:43;13.00;99.90
5011;DHT22;2524;54.364;10.072;2022-10-31T00:39:08;13.00;99.90
5011;DHT22;2524;54.364;10.072;2022-10-31T00:41:34;13.00;99.90
5011;DHT22;2524;54.364;10.072;2022-10-31T00:44:00;13.00;99.90
5011;DHT22;2524;54.364;10.072;2022-10-31T00:46:25;13.00;99.90
5011;DHT22;2524;54.364;10.072;2022-10-31T00:48:51;13.00;99.90
5011;DHT22;2524;54.364;10.072;2022-10-31T00:51:16;13.00;99.90
5011;DHT22;2524;54.364;10.072;2022-10-31T00:53:42;13.00;99.90
5011;DHT22;2524;54.364;10.072;2022-10-31T00:56:08;13.00;99.90
5011;DHT22;2524;54.364;10.072;2022-10-31T00:58:33;13.00;99.90
5011;DHT22;2524;54.364;10.072;2022-10-31T01:00:59;13.00;99.90
5011;DHT22;2524;54.364;10.072;2022-10-31T01:03:30;13.00;99.90
5011;DHT22;2524;54.364;10.072;2022-10-31T01:08:30;12.90;99.90
5011;DHT22;2524;54.364;10.072;2022-10-31T01:13:38;12.90;99.90
5011;DHT22;2524;54.364;10.072;2022-10-31T01:16:05;12.90;99.90
5011;DHT22;2524;54.364;10.072;2022-10-31T01:18:32;12.90;99.90
5011;DHT22;2524;54.364;10.072;2022-10-31T01:21:25;12.90;99.90
5011;DHT22;2524;54.364;10.072;2022-10-31T01:23:53;12.90;99.90
5011;DHT22;2524;54.364;10.072;2022-10-31T01:26:24;12.90;99.90
5011;DHT22;2524;54.364;10.072;2022-10-31T01:31:20;12.90;99.90
5011;DHT22;2524;54.364;10.072;2022-10-31T01:33:46;12.90;99.90
5011;DHT22;2524;54.364;10.072;2022-10-31T01:36:24;12.90;99.90
5011;DHT22;2524;54.364;10.072;2022-10-31T01:38:52;12.90;99.90
5011;DHT22;2524;54.364;10.072;2022-10-31T01:41:21;12.80;99.90
5011;DHT22;2524;54.364;10.072;2022-10-31T01:46:54;12.80;99.90
5011;DHT22;2524;54.364;10.072;2022-10-31T01:49:31;12.80;99.90
5011;DHT22;2524;54.364;10.072;2022-10-31T01:52:03;12.80;99.90
5011;DHT22;2524;54.364;10.072;2022-10-31T01:54:35;12.80;99.90
5011;DHT22;2524;54.364;10.072;2022-10-31T01:57:03;12.80;99.90
5011;DHT22;2524;54.364;10.072;2022-10-31T01:59:31;12.80;99.90
5011;DHT22;2524;54.364;10.072;2022-10-31T02:01:57;12.90;99.90
5011;DHT22;2524;54.364;10.072;2022-10-31T02:04:24;12.90;99.90
5011;DHT22;2524;54.364;10.072;2022-10-31T02:06:58;13.00;99.90
5011;DHT22;2524;54.364;10.072;2022-10-31T02:09:25;13.00;99.90
5011;DHT22;2524;54.364;10.072;2022-10-31T02:11:52;13.00;99.90
5011;DHT22;2524;54.364;10.072;2022-10-31T02:14:22;13.00;99.90
5011;DHT22;2524;54.364;10.072;2022-10-31T02:16:49;13.10;99.90
5011;DHT22;2524;54.364;10.072;2022-10-31T02:19:21;13.10;99.90
5011;DHT22;2524;54.364;10.072;2022-10-31T02:22:04;13.20;99.90
5011;DHT22;2524;54.364;10.072;2022-10-31T02:25:08;13.20;99.90
5011;DHT22;2524;54.364;10.072;2022-10-31T02:33:14;13.30;99.90
5011;DHT22;2524;54.364;10.072;2022-10-31T02:35:57;13.30;99.90
5011;DHT22;2524;54.364;10.072;2022-10-31T02:44:12;13.40;99.90
5011;DHT22;2524;54.364;10.072;2022-10-31T02:46:54;13.40;99.90
5011;DHT22;2524;54.364;10.072;2022-10-31T02:49:43;13.40;99.90
5011;DHT22;2524;54.364;10.072;2022-10-31T02:54:47;13.40;99.90
5011;DHT22;2524;54.364;10.072;2022-10-31T02:57:13;13.40;99.90
5011;DHT22;2524;54.364;10.072;2022-10-31T02:59:54;13.50;99.90
5011;DHT22;2524;54.364;10.072;2022-10-31T03:05:35;13.50;99.90
5011;DHT22;2524;54.364;10.072;2022-10-31T03:08:08;13.50;99.90
5011;DHT22;2524;54.364;10.072;2022-10-31T03:10:46;13.50;99.90
5011;DHT22;2524;54.364;10.072;2022-10-31T03:19:01;13.60;99.90
5011;DHT22;2524;54.364;10.072;2022-10-31T03:21:32;13.50;99.90
5011;DHT22;2524;54.364;10.072;2022-10-31T03:24:00;13.50;99.90
5011;DHT22;2524;54.364;10.072;2022-10-31T03:26:26;13.50;99.90
5011;DHT22;2524;54.364;10.072;2022-10-31T03:29:00;13.50;99.90
5011;DHT22;2524;54.364;10.072;2022-10-31T03:31:30;13.60;99.90
5011;DHT22;2524;54.364;10.072;2022-10-31T03:33:58;13.60;99.90
5011;DHT22;2524;54.364;10.072;2022-10-31T03:36:26;13.60;99.90
5011;DHT22;2524;54.364;10.072;2022-10-31T03:38:52;13.60;99.90
5011;DHT22;2524;54.364;10.072;2022-10-31T03:41:21;13.60;99.90
5011;DHT22;2524;54.364;10.072;2022-10-31T03:43:56;13.60;99.90
5011;DHT22;2524;54.364;10.072;2022-10-31T03:46:24;13.70;99.90
5011;DHT22;2524;54.364;10.072;2022-10-31T03:48:49;13.60;99.90
5011;DHT22;2524;54.364;10.072;2022-10-31T03:51:22;13.70;99.90
5011;DHT22;2524;54.364;10.072;2022-10-31T03:56:34;13.60;99.90
5011;DHT22;2524;54.364;10.072;2022-10-31T03:59:05;13.60;99.90
5011;DHT22;2524;54.364;10.072;2022-10-31T04:01:36;13.70;99.90
5011;DHT22;2524;54.364;10.072;2022-10-31T04:04:05;13.60;99.90
5011;DHT22;2524;54.364;10.072;2022-10-31T04:06:34;13.60;99.90
5011;DHT22;2524;54.364;10.072;2022-10-31T04:09:04;13.70;99.90
5011;DHT22;2524;54.364;10.072;2022-10-31T04:11:34;13.60;99.90
5011;DHT22;2524;54.364;10.072;2022-10-31T04:14:01;13.60;99.90
5011;DHT22;2524;54.364;10.072;2022-10-31T04:16:28;13.70;99.90
5011;DHT22;2524;54.364;10.072;2022-10-31T04:18:54;13.70;99.90
5011;DHT22;2524;54.364;10.072;2022-10-31T04:21:19;13.70;99.90
5011;DHT22;2524;54.364;10.072;2022-10-31T04:23:51;13.60;99.90
5011;DHT22;2524;54.364;10.072;2022-10-31T04:26:17;13.60;99.90
5011;DHT22;2524;54.364;10.072;2022-10-31T04:28:42;13.60;99.90
5011;DHT22;2524;54.364;10.072;2022-10-31T04:31:10;13.70;99.90
5011;DHT22;2524;54.364;10.072;2022-10-31T04:33:36;13.60;99.90
5011;DHT22;2524;54.364;10.072;2022-10-31T04:36:02;13.70;99.90
5011;DHT22;2524;54.364;10.072;2022-10-31T04:38:27;13.60;99.90
5011;DHT22;2524;54.364;10.072;2022-10-31T04:40:53;13.70;99.90
5011;DHT22;2524;54.364;10.072;2022-10-31T04:43:19;13.60;99.90
5011;DHT22;2524;54.364;10.072;2022-10-31T04:45:44;13.70;99.90
5011;DHT22;2524;54.364;10.072;2022-10-31T04:48:10;13.70;99.90
5011;DHT22;2524;54.364;10.072;2022-10-31T04:50:35;13.70;99.90
5011;DHT22;2524;54.364;10.072;2022-10-31T04:53:01;13.70;99.90
5011;DHT22;2524;54.364;10.072;2022-10-31T04:55:26;13.60;99.90
5011;DHT22;2524;54.364;10.072;2022-10-31T04:57:52;13.70;99.90
5011;DHT22;2524;54.364;10.072;2022-10-31T05:00:20;13.60;99.90
5011;DHT22;2524;54.364;10.072;2022-10-31T05:02:47;13.60;99.90
5011;DHT22;2524;54.364;10.072;2022-10-31T05:05:14;13.60;99.90
5011;DHT22;2524;54.364;10.072;2022-10-31T05:07:44;13.60;99.90
5011;DHT22;2524;54.364;10.072;2022-10-31T05:10:12;13.60;99.90
5011;DHT22;2524;54.364;10.072;2022-10-31T05:12:45;13.70;99.90
5011;DHT22;2524;54.364;10.072;2022-10-31T05:15:12;13.60;99.90
5011;DHT22;2524;54.364;10.072;2022-10-31T05:17:37;13.60;99.90
5011;DHT22;2524;54.364;10.072;2022-10-31T05:20:03;13.60;99.90
5011;DHT22;2524;54.364;10.072;2022-10-31T05:22:29;13.60;99.90
5011;DHT22;2524;54.364;10.072;2022-10-31T05:24:54;13.60;99.90
5011;DHT22;2524;54.364;10.072;2022-10-31T05:27:20;13.60;99.90
5011;DHT22;2524;54.364;10.072;2022-10-31T05:29:46;13.60;99.90
5011;DHT22;2524;54.364;10.072;2022-10-31T05:32:12;13.60;99.90
5011;DHT22;2524;54.364;10.072;2022-10-31T05:34:37;13.70;99.90
5011;DHT22;2524;54.364;10.072;2022-10-31T05:37:03;13.60;99.90
5011;DHT22;2524;54.364;10.072;2022-10-31T05:39:28;13.60;99.90
5011;DHT22;2524;54.364;10.072;2022-10-31T05:41:54;13.60;99.90
5011;DHT22;2524;54.364;10.072;2022-10-31T05:44:19;13.60;99.90
5011;DHT22;2524;54.364;10.072;2022-10-31T05:46:46;13.60;99.90
5011;DHT22;2524;54.364;10.072;2022-10-31T05:49:12;13.70;99.90
5011;DHT22;2524;54.364;10.072;2022-10-31T05:51:38;13.60;99.90
5011;DHT22;2524;54.364;10.072;2022-10-31T05:54:03;13.60;99.90
5011;DHT22;2524;54.364;10.072;2022-10-31T05:56:29;13.60;99.90
5011;DHT22;2524;54.364;10.072;2022-10-31T05:58:55;13.60;99.90
5011;DHT22;2524;54.364;10.072;2022-10-31T06:01:21;13.60;99.90
5011;DHT22;2524;54.364;10.072;2022-10-31T06:03:46;13.60;99.90
5011;DHT22;2524;54.364;10.072;2022-10-31T06:06:12;13.60;99.90
5011;DHT22;2524;54.364;10.072;2022-10-31T06:08:38;13.60;99.90
5011;DHT22;2524;54.364;10.072;2022-10-31T06:11:03;13.60;99.90
5011;DHT22;2524;54.364;10.072;2022-10-31T06:13:29;13.60;99.90
5011;DHT22;2524;54.364;10.072;2022-10-31T06:15:54;13.60;99.90
5011;DHT22;2524;54.364;10.072;2022-10-31T06:18:20;13.60;99.90
5011;DHT22;2524;54.364;10.072;2022-10-31T06:20:46;13.60;99.90
5011;DHT22;2524;54.364;10.072;2022-10-31T06:23:11;13.60;99.90
5011;DHT22;2524;54.364;10.072;2022-10-31T06:25:37;13.60;99.90
5011;DHT22;2524;54.364;10.072;2022-10-31T06:28:02;13.60;99.90
5011;DHT22;2524;54.364;10.072;2022-10-31T06:30:28;13.60;99.90
5011;DHT22;2524;54.364;10.072;2022-10-31T06:32:54;13.50;99.90
5011;DHT22;2524;54.364;10.072;2022-10-31T06:35:19;13.60;99.90
5011;DHT22;2524;54.364;10.072;2022-10-31T06:37:52;13.60;99.90
5011;DHT22;2524;54.364;10.072;2022-10-31T06:40:22;13.60;99.90
5011;DHT22;2524;54.364;10.072;2022-10-31T06:42:56;13.60;99.90
5011;DHT22;2524;54.364;10.072;2022-10-31T06:45:22;13.60;99.90
5011;DHT22;2524;54.364;10.072;2022-10-31T06:47:54;13.60;99.90
5011;DHT22;2524;54.364;10.072;2022-10-31T06:50:21;13.60;99.90
5011;DHT22;2524;54.364;10.072;2022-10-31T06:52:55;13.60;99.90
5011;DHT22;2524;54.364;10.072;2022-10-31T06:55:22;13.70;99.90
5011;DHT22;2524;54.364;10.072;2022-10-31T06:58:00;13.60;99.90
5011;DHT22;2524;54.364;10.072;2022-10-31T07:00:28;13.60;99.90
5011;DHT22;2524;54.364;10.072;2022-10-31T07:02:58;13.60;99.90
5011;DHT22;2524;54.364;10.072;2022-10-31T07:05:24;13.60;99.90
5011;DHT22;2524;54.364;10.072;2022-10-31T07:07:55;13.60;99.90
5011;DHT22;2524;54.364;10.072;2022-10-31T07:10:21;13.60;99.90
5011;DHT22;2524;54.364;10.072;2022-10-31T07:12:47;13.60;99.90
5011;DHT22;2524;54.364;10.072;2022-10-31T07:15:12;13.60;99.90
5011;DHT22;2524;54.364;10.072;2022-10-31T07:17:38;13.60;99.90
5011;DHT22;2524;54.364;10.072;2022-10-31T07:20:04;13.60;99.90
5011;DHT22;2524;54.364;10.072;2022-10-31T07:22:34;13.50;99.90
5011;DHT22;2524;54.364;10.072;2022-10-31T07:25:01;13.60;99.90
5011;DHT22;2524;54.364;10.072;2022-10-31T07:27:26;13.50;99.90
5011;DHT22;2524;54.364;10.072;2022-10-31T07:29:52;13.50;99.90
5011;DHT22;2524;54.364;10.072;2022-10-31T07:32:17;13.60;99.90
5011;DHT22;2524;54.364;10.072;2022-10-31T07:34:43;13.50;99.90
5011;DHT22;2524;54.364;10.072;2022-10-31T07:37:08;13.60;99.90
5011;DHT22;2524;54.364;10.072;2022-10-31T07:39:34;13.50;99.90
5011;DHT22;2524;54.364;10.072;2022-10-31T07:41:59;13.60;99.90
5011;DHT22;2524;54.364;10.072;2022-10-31T07:44:25;13.60;99.90
5011;DHT22;2524;54.364;10.072;2022-10-31T07:46:51;13.60;99.90
5011;DHT22;2524;54.364;10.072;2022-10-31T07:49:17;13.60;99.90
5011;DHT22;2524;54.364;10.072;2022-10-31T07:51:43;13.60;99.90
5011;DHT22;2524;54.364;10.072;2022-10-31T07:54:08;13.60;99.90
5011;DHT22;2524;54.364;10.072;2022-10-31T07:56:34;13.60;99.90
5011;DHT22;2524;54.364;10.072;2022-10-31T07:58:59;13.60;99.90
5011;DHT22;2524;54.364;10.072;2022-10-31T08:01:27;13.60;99.90
5011;DHT22;2524;54.364;10.072;2022-10-31T08:03:52;13.60;99.90
5011;DHT22;2524;54.364;10.072;2022-10-31T08:06:18;13.70;99.90
5011;DHT22;2524;54.364;10.072;2022-10-31T08:08:43;13.70;99.90
5011;DHT22;2524;54.364;10.072;2022-10-31T08:11:09;13.60;99.90
5011;DHT22;2524;54.364;10.072;2022-10-31T08:13:35;13.60;99.90
5011;DHT22;2524;54.364;10.072;2022-10-31T08:16:00;13.60;99.90
5011;DHT22;2524;54.364;10.072;2022-10-31T08:18:30;13.70;99.90
5011;DHT22;2524;54.364;10.072;2022-10-31T08:20:56;13.60;99.90
5011;DHT22;2524;54.364;10.072;2022-10-31T08:23:21;13.60;99.90
5011;DHT22;2524;54.364;10.072;2022-10-31T08:25:47;13.60;99.90
5011;DHT22;2524;54.364;10.072;2022-10-31T08:28:13;13.60;99.90
5011;DHT22;2524;54.364;10.072;2022-10-31T08:30:40;13.60;99.90
5011;DHT22;2524;54.364;10.072;2022-10-31T08:33:15;13.60;99.90
5011;DHT22;2524;54.364;10.072;2022-10-31T08:35:43;13.50;99.90
5011;DHT22;2524;54.364;10.072;2022-10-31T08:38:10;13.60;99.90
5011;DHT22;2524;54.364;10.072;2022-10-31T08:40:37;13.60;99.90
5011;DHT22;2524;54.364;10.072;2022-10-31T08:43:10;13.50;99.90
5011;DHT22;2524;54.364;10.072;2022-10-31T08:45:36;13.40;99.90
5011;DHT22;2524;54.364;10.072;2022-10-31T08:48:04;13.40;99.90
5011;DHT22;2524;54.364;10.072;2022-10-31T08:50:32;13.40;99.90
5011;DHT22;2524;54.364;10.072;2022-10-31T08:53:16;13.50;99.90
5011;DHT22;2524;54.364;10.072;2022-10-31T08:55:43;13.40;99.90
5011;DHT22;2524;54.364;10.072;2022-10-31T08:58:16;13.40;99.90
5011;DHT22;2524;54.364;10.072;2022-10-31T09:00:43;13.50;99.90
5011;DHT22;2524;54.364;10.072;2022-10-31T09:03:15;13.40;99.90
5011;DHT22;2524;54.364;10.072;2022-10-31T09:05:41;13.60;99.90
5011;DHT22;2524;54.364;10.072;2022-10-31T09:08:08;13.40;99.90
5011;DHT22;2524;54.364;10.072;2022-10-31T09:10:35;13.50;99.90
5011;DHT22;2524;54.364;10.072;2022-10-31T09:13:04;13.50;99.90
5011;DHT22;2524;54.364;10.072;2022-10-31T09:15:33;13.50;99.90
5011;DHT22;2524;54.364;10.072;2022-10-31T09:17:59;13.50;99.90
5011;DHT22;2524;54.364;10.072;2022-10-31T09:20:26;13.50;99.90
5011;DHT22;2524;54.364;10.072;2022-10-31T09:23:00;13.50;99.90
5011;DHT22;2524;54.364;10.072;2022-10-31T09:25:27;13.60;99.90
5011;DHT22;2524;54.364;10.072;2022-10-31T09:27:57;13.50;99.90
5011;DHT22;2524;54.364;10.072;2022-10-31T09:30:23;13.70;99.90
5011;DHT22;2524;54.364;10.072;2022-10-31T09:32:58;13.60;99.90
5011;DHT22;2524;54.364;10.072;2022-10-31T09:35:24;13.60;99.90
5011;DHT22;2524;54.364;10.072;2022-10-31T09:37:56;13.50;99.90
5011;DHT22;2524;54.364;10.072;2022-10-31T09:40:32;13.70;99.90
5011;DHT22;2524;54.364;10.072;2022-10-31T09:43:13;13.60;99.90
5011;DHT22;2524;54.364;10.072;2022-10-31T09:50:52;13.70;99.90
5011;DHT22;2524;54.364;10.072;2022-10-31T09:56:01;13.70;99.90
5011;DHT22;2524;54.364;10.072;2022-10-31T09:58:31;13.70;99.90
5011;DHT22;2524;54.364;10.072;2022-10-31T10:01:01;13.80;99.90
5011;DHT22;2524;54.364;10.072;2022-10-31T10:03:49;13.80;99.90
5011;DHT22;2524;54.364;10.072;2022-10-31T10:06:23;13.80;99.90
5011;DHT22;2524;54.364;10.072;2022-10-31T10:08:50;13.90;99.90
5011;DHT22;2524;54.364;10.072;2022-10-31T10:11:25;13.90;99.90
5011;DHT22;2524;54.364;10.072;2022-10-31T10:19:22;14.00;99.90
5011;DHT22;2524;54.364;10.072;2022-10-31T10:22:13;14.00;99.90
5011;DHT22;2524;54.364;10.072;2022-10-31T10:24:55;14.00;99.90
5011;DHT22;2524;54.364;10.072;2022-10-31T10:33:08;14.40;99.90
5011;DHT22;2524;54.364;10.072;2022-10-31T10:35:37;14.50;99.90
5011;DHT22;2524;54.364;10.072;2022-10-31T10:40:40;14.60;99.90
5011;DHT22;2524;54.364;10.072;2022-10-31T10:43:31;14.70;99.90
5011;DHT22;2524;54.364;10.072;2022-10-31T10:46:17;14.90;99.90
5011;DHT22;2524;54.364;10.072;2022-10-31T10:51:42;15.00;99.90
5011;DHT22;2524;54.364;10.072;2022-10-31T10:54:36;15.00;99.90
5011;DHT22;2524;54.364;10.072;2022-10-31T10:57:38;15.10;99.90
5011;DHT22;2524;54.364;10.072;2022-10-31T11:00:22;15.10;99.90
5011;DHT22;2524;54.364;10.072;2022-10-31T11:02:48;15.20;99.90
5011;DHT22;2524;54.364;10.072;2022-10-31T11:05:39;15.10;99.90
5011;DHT22;2524;54.364;10.072;2022-10-31T11:08:07;15.10;99.90
5011;DHT22;2524;54.364;10.072;2022-10-31T11:10:34;15.10;99.90
5011;DHT22;2524;54.364;10.072;2022-10-31T11:13:17;15.10;99.90
5011;DHT22;2524;54.364;10.072;2022-10-31T11:16:00;15.00;99.90
5011;DHT22;2524;54.364;10.072;2022-10-31T11:18:34;15.00;99.90
5011;DHT22;2524;54.364;10.072;2022-10-31T11:21:01;15.10;99.90
5011;DHT22;2524;54.364;10.072;2022-10-31T11:23:29;15.00;99.90
5011;DHT22;2524;54.364;10.072;2022-10-31T11:26:03;15.00;99.90
5011;DHT22;2524;54.364;10.072;2022-10-31T11:28:31;14.90;99.90
5011;DHT22;2524;54.364;10.072;2022-10-31T11:31:21;14.90;99.90
5011;DHT22;2524;54.364;10.072;2022-10-31T11:33:54;14.90;99.90
5011;DHT22;2524;54.364;10.072;2022-10-31T11:36:28;14.90;99.90
5011;DHT22;2524;54.364;10.072;2022-10-31T11:38:55;15.10;99.90
5011;DHT22;2524;54.364;10.072;2022-10-31T11:41:32;15.20;99.90
5011;DHT22;2524;54.364;10.072;2022-10-31T11:44:02;15.40;99.90
5011;DHT22;2524;54.364;10.072;2022-10-31T11:48:59;15.60;99.90
5011;DHT22;2524;54.364;10.072;2022-10-31T11:53:57;15.70;99.90
5011;DHT22;2524;54.364;10.072;2022-10-31T11:56:23;15.80;99.90
5011;DHT22;2524;54.364;10.072;2022-10-31T11:59:04;15.90;99.90
5011;DHT22;2524;54.364;10.072;2022-10-31T12:01:32;16.20;99.90
5011;DHT22;2524;54.364;10.072;2022-10-31T12:04:09;16.10;99.90
5011;DHT22;2524;54.364;10.072;2022-10-31T12:06:40;16.20;99.90
5011;DHT22;2524;54.364;10.072;2022-10-31T12:09:27;16.30;99.90
5011;DHT22;2524;54.364;10.072;2022-10-31T12:18:04;16.40;99.90
5011;DHT22;2524;54.364;10.072;2022-10-31T12:29:16;16.40;99.90
5011;DHT22;2524;54.364;10.072;2022-10-31T12:40:15;16.50;99.90
5011;DHT22;2524;54.364;10.072;2022-10-31T12:43:01;16.50;99.90
5011;DHT22;2524;54.364;10.072;2022-10-31T12:51:11;16.40;99.90
5011;DHT22;2524;54.364;10.072;2022-10-31T12:59:01;16.40;99.90
5011;DHT22;2524;54.364;10.072;2022-10-31T13:01:55;16.40;99.90
5011;DHT22;2524;54.364;10.072;2022-10-31T13:04:49;16.40;99.90
5011;DHT22;2524;54.364;10.072;2022-10-31T13:07:25;16.40;99.90
5011;DHT22;2524;54.364;10.072;2022-10-31T13:10:07;16.40;99.90
5011;DHT22;2524;54.364;10.072;2022-10-31T13:12:39;16.40;99.90
5011;DHT22;2524;54.364;10.072;2022-10-31T13:15:35;16.50;99.90
5011;DHT22;2524;54.364;10.072;2022-10-31T13:18:12;16.40;99.90
5011;DHT22;2524;54.364;10.072;2022-10-31T13:20:43;16.40;99.90
5011;DHT22;2524;54.364;10.072;2022-10-31T13:23:30;16.20;99.90
5011;DHT22;2524;54.364;10.072;2022-10-31T13:25:59;16.10;99.90
5011;DHT22;2524;54.364;10.072;2022-10-31T13:31:21;16.10;99.90
5011;DHT22;2524;54.364;10.072;2022-10-31T13:33:51;16.00;99.90
5011;DHT22;2524;54.364;10.072;2022-10-31T13:36:24;16.10;99.90
5011;DHT22;2524;54.364;10.072;2022-10-31T13:38:55;16.10;99.90
5011;DHT22;2524;54.364;10.072;2022-10-31T13:46:40;16.20;99.90
5011;DHT22;2524;54.364;10.072;2022-10-31T13:54:37;16.30;99.90
5011;DHT22;2524;54.364;10.072;2022-10-31T13:57:20;16.40;99.90
5011;DHT22;2524;54.364;10.072;2022-10-31T13:59:53;16.30;99.90
5011;DHT22;2524;54.364;10.072;2022-10-31T14:02:31;16.30;99.90
5011;DHT22;2524;54.364;10.072;2022-10-31T14:05:06;16.30;99.90
5011;DHT22;2524;54.364;10.072;2022-10-31T14:07:43;16.20;99.90
5011;DHT22;2524;54.364;10.072;2022-10-31T14:10:26;16.10;99.90
5011;DHT22;2524;54.364;10.072;2022-10-31T14:13:08;16.10;99.90
5011;DHT22;2524;54.364;10.072;2022-10-31T14:15:41;16.00;99.90
5011;DHT22;2524;54.364;10.072;2022-10-31T14:18:25;15.90;99.90
5011;DHT22;2524;54.364;10.072;2022-10-31T14:20:54;15.80;99.90
5011;DHT22;2524;54.364;10.072;2022-10-31T14:23:37;15.70;99.90
5011;DHT22;2524;54.364;10.072;2022-10-31T14:33:53;15.50;99.90
5011;DHT22;2524;54.364;10.072;2022-10-31T14:39:11;15.40;99.90
5011;DHT22;2524;54.364;10.072;2022-10-31T14:42:20;15.40;99.90
5011;DHT22;2524;54.364;10.072;2022-10-31T14:45:00;15.30;99.90
5011;DHT22;2524;54.364;10.072;2022-10-31T14:47:38;15.20;99.90
5011;DHT22;2524;54.364;10.072;2022-10-31T14:50:17;15.20;99.90
5011;DHT22;2524;54.364;10.072;2022-10-31T14:52:49;15.10;99.90
5011;DHT22;2524;54.364;10.072;2022-10-31T14:55:16;15.00;99.90
5011;DHT22;2524;54.364;10.072;2022-10-31T14:58:07;15.00;99.90
5011;DHT22;2524;54.364;10.072;2022-10-31T15:00:33;15.00;99.90
5011;DHT22;2524;54.364;10.072;2022-10-31T15:03:13;14.80;99.90
5011;DHT22;2524;54.364;10.072;2022-10-31T15:05:50;14.80;99.90
5011;DHT22;2524;54.364;10.072;2022-10-31T15:08:32;14.80;99.90
5011;DHT22;2524;54.364;10.072;2022-10-31T15:10:57;14.70;99.90
5011;DHT22;2524;54.364;10.072;2022-10-31T15:13:23;14.70;99.90
5011;DHT22;2524;54.364;10.072;2022-10-31T15:15:54;14.60;99.90
5011;DHT22;2524;54.364;10.072;2022-10-31T15:18:23;14.60;99.90
5011;DHT22;2524;54.364;10.072;2022-10-31T15:20:50;14.50;99.90
5011;DHT22;2524;54.364;10.072;2022-10-31T15:23:24;14.50;99.90
5011;DHT22;2524;54.364;10.072;2022-10-31T15:25:58;14.50;99.90
5011;DHT22;2524;54.364;10.072;2022-10-31T15:28:25;14.40;99.90
5011;DHT22;2524;54.364;10.072;2022-10-31T15:31:02;14.50;99.90
5011;DHT22;2524;54.364;10.072;2022-10-31T15:38:23;14.40;99.90
5011;DHT22;2524;54.364;10.072;2022-10-31T15:40:57;14.30;99.90
5011;DHT22;2524;54.364;10.072;2022-10-31T15:43:24;14.30;99.90
5011;DHT22;2524;54.364;10.072;2022-10-31T15:45:50;14.20;99.90
5011;DHT22;2524;54.364;10.072;2022-10-31T15:48:18;14.30;99.90
5011;DHT22;2524;54.364;10.072;2022-10-31T15:50:55;14.20;99.90
5011;DHT22;2524;54.364;10.072;2022-10-31T15:53:36;14.20;99.90
5011;DHT22;2524;54.364;10.072;2022-10-31T15:56:08;14.10;99.90
5011;DHT22;2524;54.364;10.072;2022-10-31T15:58:42;14.10;99.90
5011;DHT22;2524;54.364;10.072;2022-10-31T16:06:38;14.10;99.90
5011;DHT22;2524;54.364;10.072;2022-10-31T16:09:22;14.10;99.90
5011;DHT22;2524;54.364;10.072;2022-10-31T16:11:48;14.10;99.90
5011;DHT22;2524;54.364;10.072;2022-10-31T16:14:21;14.00;99.90
5011;DHT22;2524;54.364;10.072;2022-10-31T16:16:50;14.00;99.90
5011;DHT22;2524;54.364;10.072;2022-10-31T16:21:48;14.00;99.90
5011;DHT22;2524;54.364;10.072;2022-10-31T16:24:19;13.90;99.90
5011;DHT22;2524;54.364;10.072;2022-10-31T16:26:51;13.90;99.90
5011;DHT22;2524;54.364;10.072;2022-10-31T16:31:57;13.80;99.90
5011;DHT22;2524;54.364;10.072;2022-10-31T16:34:29;13.90;99.90
5011;DHT22;2524;54.364;10.072;2022-10-31T16:36:55;13.80;99.90
5011;DHT22;2524;54.364;10.072;2022-10-31T16:39:21;13.80;99.90
5011;DHT22;2524;54.364;10.072;2022-10-31T16:41:48;13.80;99.90
5011;DHT22;2524;54.364;10.072;2022-10-31T16:44:22;13.80;99.90
5011;DHT22;2524;54.364;10.072;2022-10-31T16:47:14;13.80;99.90
5011;DHT22;2524;54.364;10.072;2022-10-31T16:49:40;13.70;99.90
5011;DHT22;2524;54.364;10.072;2022-10-31T16:52:11;13.70;99.90
5011;DHT22;2524;54.364;10.072;2022-10-31T16:54:37;13.60;99.90
5011;DHT22;2524;54.364;10.072;2022-10-31T16:57:03;13.70;99.90
5011;DHT22;2524;54.364;10.072;2022-10-31T16:59:30;13.60;99.90
5011;DHT22;2524;54.364;10.072;2022-10-31T17:01:56;13.60;99.90
5011;DHT22;2524;54.364;10.072;2022-10-31T17:04:22;13.60;99.90
5011;DHT22;2524;54.364;10.072;2022-10-31T17:06:47;13.60;99.90
5011;DHT22;2524;54.364;10.072;2022-10-31T17:09:13;13.60;99.90
5011;DHT22;2524;54.364;10.072;2022-10-31T17:11:46;13.50;99.90
5011;DHT22;2524;54.364;10.072;2022-10-31T17:14:12;13.50;99.90
5011;DHT22;2524;54.364;10.072;2022-10-31T17:16:38;13.50;99.90
5011;DHT22;2524;54.364;10.072;2022-10-31T17:19:03;13.50;99.90
5011;DHT22;2524;54.364;10.072;2022-10-31T17:21:29;13.50;99.90
5011;DHT22;2524;54.364;10.072;2022-10-31T17:23:55;13.50;99.90
5011;DHT22;2524;54.364;10.072;2022-10-31T17:26:21;13.50;99.90
5011;DHT22;2524;54.364;10.072;2022-10-31T17:28:47;13.50;99.90
5011;DHT22;2524;54.364;10.072;2022-10-31T17:31:26;13.50;99.90
5011;DHT22;2524;54.364;10.072;2022-10-31T17:33:54;13.40;99.90
5011;DHT22;2524;54.364;10.072;2022-10-31T17:36:20;13.50;99.90
5011;DHT22;2524;54.364;10.072;2022-10-31T17:38:45;13.50;99.90
5011;DHT22;2524;54.364;10.072;2022-10-31T17:41:11;13.50;99.90
5011;DHT22;2524;54.364;10.072;2022-10-31T17:43:36;13.50;99.90
5011;DHT22;2524;54.364;10.072;2022-10-31T17:46:02;13.50;99.90
5011;DHT22;2524;54.364;10.072;2022-10-31T17:48:28;13.50;99.90
5011;DHT22;2524;54.364;10.072;2022-10-31T17:50:58;13.50;99.90
5011;DHT22;2524;54.364;10.072;2022-10-31T17:53:24;13.50;99.90
5011;DHT22;2524;54.364;10.072;2022-10-31T17:55:49;13.50;99.90
5011;DHT22;2524;54.364;10.072;2022-10-31T17:58:15;13.50;99.90
5011;DHT22;2524;54.364;10.072;2022-10-31T18:00:40;13.50;99.90
5011;DHT22;2524;54.364;10.072;2022-10-31T18:03:06;13.50;99.90
5011;DHT22;2524;54.364;10.072;2022-10-31T18:05:33;13.60;99.90
5011;DHT22;2524;54.364;10.072;2022-10-31T18:07:59;13.60;99.90
5011;DHT22;2524;54.364;10.072;2022-10-31T18:10:25;13.60;99.90
5011;DHT22;2524;54.364;10.072;2022-10-31T18:12:51;13.50;99.90
5011;DHT22;2524;54.364;10.072;2022-10-31T18:15:17;13.60;99.90
5011;DHT22;2524;54.364;10.072;2022-10-31T18:17:44;13.60;99.90
5011;DHT22;2524;54.364;10.072;2022-10-31T18:20:11;13.60;99.90
5011;DHT22;2524;54.364;10.072;2022-10-31T18:22:36;13.60;99.90